createdAt,value
2018-02-19T00:00:02.903Z,45.10
2018-02-19T00:01:02.875Z,44.40
2018-02-19T00:02:02.850Z,47.10
2018-02-19T00:03:02.828Z,45.50
2018-02-19T00:04:02.803Z,43.50
2018-02-19T00:05:02.779Z,45.80
2018-02-19T00:06:02.751Z,41.60
2018-02-19T00:07:02.749Z,44.10
2018-02-19T00:08:02.703Z,41.80
2018-02-19T00:09:02.677Z,49.10
2018-02-19T00:10:02.661Z,43.30
2018-02-19T00:11:02.639Z,43.00
2018-02-19T00:12:02.616Z,44.00
2018-02-19T00:13:02.749Z,44.40
2018-02-19T00:14:02.559Z,45.80
2018-02-19T00:15:02.531Z,46.10
2018-02-19T00:16:02.512Z,47.50
2018-02-19T00:17:02.480Z,46.80
2018-02-19T00:18:02.455Z,39.30
2018-02-19T00:19:02.430Z,45.90
2018-02-19T00:20:02.408Z,49.40
2018-02-19T00:21:02.397Z,44.50
2018-02-19T00:22:02.369Z,40.70
2018-02-19T00:23:02.338Z,44.00
2018-02-19T00:24:02.306Z,40.90
2018-02-19T00:25:02.289Z,47.00
2018-02-19T00:26:02.289Z,47.10
2018-02-19T00:27:02.234Z,48.00
2018-02-19T00:28:02.207Z,41.80
2018-02-19T00:29:02.196Z,41.70
2018-02-19T00:30:02.156Z,45.80
2018-02-19T00:31:02.133Z,44.80
2018-02-19T00:32:02.130Z,43.00
2018-02-19T00:33:02.083Z,46.60
2018-02-19T00:34:02.064Z,43.60
2018-02-19T00:35:02.034Z,45.80
2018-02-19T00:36:02.013Z,46.50
2018-02-19T00:37:01.986Z,42.90
2018-02-19T00:38:01.968Z,43.50
2018-02-19T00:39:01.946Z,44.90
2018-02-19T00:40:01.914Z,48.40
2018-02-19T00:41:01.889Z,46.40
2018-02-19T00:42:01.876Z,41.60
2018-02-19T00:43:01.838Z,38.10
2018-02-19T00:44:01.812Z,46.60
2018-02-19T00:45:01.796Z,43.20
2018-02-19T00:46:01.764Z,47.10
2018-02-19T00:47:01.751Z,44.20
2018-02-19T00:48:01.715Z,43.40
2018-02-19T00:49:01.689Z,43.40
2018-02-19T00:50:01.665Z,43.10
2018-02-19T00:51:01.758Z,43.10
2018-02-19T00:52:01.614Z,42.80
2018-02-19T00:53:01.591Z,42.50
2018-02-19T00:54:01.567Z,41.70
2018-02-19T00:55:01.540Z,45.30
2018-02-19T00:56:01.516Z,42.80
2018-02-19T00:57:01.499Z,42.70
2018-02-19T00:58:01.465Z,46.60
2018-02-19T00:59:01.440Z,44.50
2018-02-19T01:00:01.425Z,43.30
2018-02-19T01:01:01.395Z,43.90
2018-02-19T01:02:01.519Z,44.30
2018-02-19T01:03:01.342Z,43.30
2018-02-19T01:04:01.319Z,47.20
2018-02-19T01:05:01.321Z,39.50
2018-02-19T01:06:01.271Z,43.10
2018-02-19T01:07:01.241Z,48.40
2018-02-19T01:08:01.219Z,47.00
2018-02-19T01:09:01.194Z,41.70
2018-02-19T01:10:01.169Z,46.50
2018-02-19T01:11:01.144Z,43.10
2018-02-19T01:12:01.120Z,44.50
2018-02-19T01:13:01.099Z,44.70
2018-02-19T01:14:01.070Z,42.40
2018-02-19T01:15:01.049Z,44.90
2018-02-19T01:16:01.024Z,43.40
2018-02-19T01:17:00.998Z,44.00
2018-02-19T01:18:01.001Z,48.40
2018-02-19T01:19:00.953Z,51.50
2018-02-19T01:20:00.933Z,45.70
2018-02-19T01:21:00.911Z,43.60
2018-02-19T01:22:00.871Z,50.20
2018-02-19T01:23:00.847Z,46.70
2018-02-19T01:24:00.828Z,46.20
2018-02-19T01:25:00.799Z,49.60
2018-02-19T01:26:00.774Z,43.10
2018-02-19T01:27:00.748Z,50.90
2018-02-19T01:28:00.726Z,43.50
2018-02-19T01:29:00.707Z,49.40
2018-02-19T01:30:00.675Z,46.00
2018-02-19T01:31:00.649Z,44.80
2018-02-19T01:32:00.625Z,48.30
2018-02-19T01:33:00.601Z,45.90
2018-02-19T01:34:00.579Z,45.80
2018-02-19T01:35:00.550Z,46.30
2018-02-19T01:36:00.534Z,48.20
2018-02-19T01:37:00.502Z,46.60
2018-02-19T01:38:00.475Z,45.10
2018-02-19T01:39:00.449Z,43.00
2018-02-19T01:40:00.435Z,45.20
2018-02-19T01:41:00.400Z,43.10
2018-02-19T01:42:00.385Z,45.10
2018-02-19T01:43:00.409Z,47.20
2018-02-19T01:44:00.325Z,49.40
2018-02-19T01:45:00.303Z,48.90
2018-02-19T01:46:00.277Z,46.30
2018-02-19T01:47:00.254Z,41.50
2018-02-19T01:48:00.230Z,50.00
2018-02-19T01:49:00.206Z,42.30
2018-02-19T01:50:00.178Z,44.20
2018-02-19T01:51:00.153Z,51.30
2018-02-19T01:52:00.129Z,45.80
2018-02-19T01:53:00.104Z,46.60
2018-02-19T01:54:00.078Z,48.60
2018-02-19T01:55:00.052Z,44.80
2018-02-19T01:56:00.027Z,50.50
2018-02-19T01:57:00.003Z,47.50
2018-02-19T01:57:59.985Z,45.30
2018-02-19T01:58:59.961Z,44.70
2018-02-19T01:59:59.935Z,50.30
2018-02-19T02:00:59.901Z,49.80
2018-02-19T02:01:59.895Z,47.50
2018-02-19T02:02:59.852Z,47.00
2018-02-19T02:03:59.831Z,46.70
2018-02-19T02:04:59.802Z,46.70
2018-02-19T02:05:59.776Z,50.90
2018-02-19T02:06:59.812Z,48.40
2018-02-19T02:07:59.726Z,45.30
2018-02-19T02:08:59.700Z,46.30
2018-02-19T02:09:59.689Z,47.10
2018-02-19T02:10:59.661Z,48.90
2018-02-19T02:11:59.625Z,45.90
2018-02-19T02:12:59.624Z,47.50
2018-02-19T02:13:59.575Z,50.00
2018-02-19T02:14:59.554Z,50.10
2018-02-19T02:15:59.532Z,49.20
2018-02-19T02:16:59.503Z,47.80
2018-02-19T02:17:59.483Z,44.60
2018-02-19T02:18:59.451Z,48.90
2018-02-19T02:19:59.429Z,47.10
2018-02-19T02:20:59.409Z,49.00
2018-02-19T02:21:59.378Z,51.30
2018-02-19T02:22:59.357Z,47.10
2018-02-19T02:23:59.330Z,47.40
2018-02-19T02:24:59.306Z,47.90
2018-02-19T02:25:59.279Z,50.10
2018-02-19T02:26:59.250Z,48.60
2018-02-19T02:27:59.236Z,49.30
2018-02-19T02:28:59.202Z,47.60
2018-02-19T02:29:59.181Z,47.00
2018-02-19T02:30:59.152Z,47.30
2018-02-19T02:31:59.154Z,51.20
2018-02-19T02:32:59.100Z,48.30
2018-02-19T02:33:59.080Z,44.90
2018-02-19T02:34:59.075Z,47.10
2018-02-19T02:35:59.031Z,48.10
2018-02-19T02:36:59.000Z,48.30
2018-02-19T02:37:59.082Z,49.80
2018-02-19T02:38:58.952Z,53.30
2018-02-19T02:39:58.945Z,47.10
2018-02-19T02:40:58.907Z,48.80
2018-02-19T02:41:58.876Z,44.20
2018-02-19T02:42:58.851Z,46.40
2018-02-19T02:43:58.826Z,51.00
2018-02-19T02:44:58.801Z,52.20
2018-02-19T02:45:58.781Z,47.40
2018-02-19T02:46:58.749Z,47.50
2018-02-19T02:47:58.731Z,49.00
2018-02-19T02:48:58.701Z,46.60
2018-02-19T02:49:58.676Z,48.30
2018-02-19T02:50:58.658Z,47.00
2018-02-19T02:51:58.624Z,45.90
2018-02-19T02:52:58.605Z,46.20
2018-02-19T02:53:58.595Z,50.10
2018-02-19T02:54:58.556Z,49.30
2018-02-19T02:55:58.534Z,49.10
2018-02-19T02:56:58.599Z,48.50
2018-02-19T02:57:58.479Z,47.90
2018-02-19T02:58:58.453Z,48.80
2018-02-19T02:59:58.425Z,49.60
2018-02-19T03:00:58.407Z,46.40
2018-02-19T03:01:58.381Z,49.50
2018-02-19T03:02:58.354Z,49.70
2018-02-19T03:03:58.326Z,48.70
2018-02-19T03:04:58.305Z,45.20
2018-02-19T03:05:58.275Z,52.40
2018-02-19T03:06:58.253Z,45.70
2018-02-19T03:07:58.235Z,45.10
2018-02-19T03:08:58.215Z,44.20
2018-02-19T03:09:58.181Z,50.90
2018-02-19T03:10:58.154Z,49.50
2018-02-19T03:11:58.127Z,47.30
2018-02-19T03:12:58.112Z,44.80
2018-02-19T03:13:58.078Z,48.80
2018-02-19T03:14:58.053Z,54.30
2018-02-19T03:15:58.028Z,46.00
2018-02-19T03:16:58.002Z,45.10
2018-02-19T03:17:57.976Z,48.70
2018-02-19T03:18:57.951Z,45.50
2018-02-19T03:19:57.931Z,49.60
2018-02-19T03:20:57.902Z,49.10
2018-02-19T03:21:57.877Z,52.40
2018-02-19T03:22:57.850Z,49.00
2018-02-19T03:23:57.827Z,50.90
2018-02-19T03:24:57.811Z,46.50
2018-02-19T03:25:57.785Z,44.50
2018-02-19T03:26:57.753Z,50.50
2018-02-19T03:27:57.767Z,49.40
2018-02-19T03:28:57.707Z,47.30
2018-02-19T03:29:57.681Z,47.70
2018-02-19T03:30:57.652Z,52.10
2018-02-19T03:31:57.629Z,50.20
2018-02-19T03:32:57.674Z,52.10
2018-02-19T03:33:57.579Z,48.20
2018-02-19T03:34:57.559Z,49.80
2018-02-19T03:35:57.531Z,49.70
2018-02-19T03:36:57.504Z,48.30
2018-02-19T03:37:57.478Z,49.70
2018-02-19T03:38:57.451Z,55.40
2018-02-19T03:39:57.427Z,52.70
2018-02-19T03:40:57.400Z,49.10
2018-02-19T03:41:57.380Z,49.20
2018-02-19T03:42:57.353Z,52.30
2018-02-19T03:43:57.328Z,57.90
2018-02-19T03:44:57.305Z,50.30
2018-02-19T03:45:57.288Z,47.50
2018-02-19T03:46:57.250Z,51.50
2018-02-19T03:47:57.228Z,52.00
2018-02-19T03:48:57.204Z,54.60
2018-02-19T03:49:57.179Z,50.60
2018-02-19T03:50:57.152Z,51.40
2018-02-19T03:51:57.151Z,50.60
2018-02-19T03:52:57.102Z,60.70
2018-02-19T03:53:57.078Z,51.70
2018-02-19T03:54:57.075Z,50.10
2018-02-19T03:55:57.028Z,55.00
2018-02-19T03:56:57.003Z,48.50
2018-02-19T03:57:56.976Z,49.10
2018-02-19T03:58:56.951Z,52.80
2018-02-19T03:59:57.010Z,53.70
2018-02-19T04:00:56.902Z,53.50
2018-02-19T04:01:56.877Z,57.50
2018-02-19T04:02:56.873Z,58.00
2018-02-19T04:03:56.825Z,51.10
2018-02-19T04:04:56.801Z,52.20
2018-02-19T04:05:56.794Z,52.50
2018-02-19T04:06:56.747Z,50.90
2018-02-19T04:07:56.724Z,52.90
2018-02-19T04:08:56.697Z,58.00
2018-02-19T04:09:56.674Z,55.70
2018-02-19T04:10:56.646Z,57.40
2018-02-19T04:11:56.619Z,56.00
2018-02-19T04:12:56.604Z,55.60
2018-02-19T04:13:56.574Z,51.80
2018-02-19T04:14:56.552Z,57.60
2018-02-19T04:15:56.524Z,53.20
2018-02-19T04:16:56.494Z,58.30
2018-02-19T04:17:56.469Z,54.50
2018-02-19T04:18:56.443Z,53.60
2018-02-19T04:19:56.418Z,50.90
2018-02-19T04:20:56.404Z,59.40
2018-02-19T04:21:56.367Z,59.70
2018-02-19T04:22:56.342Z,58.70
2018-02-19T04:23:56.322Z,57.00
2018-02-19T04:24:56.302Z,56.70
2018-02-19T04:25:56.268Z,54.50
2018-02-19T04:26:56.242Z,61.20
2018-02-19T04:27:56.216Z,57.90
2018-02-19T04:28:56.191Z,56.60
2018-02-19T04:29:56.164Z,54.40
2018-02-19T04:30:56.167Z,60.90
2018-02-19T04:31:56.113Z,55.90
2018-02-19T04:32:56.093Z,58.30
2018-02-19T04:33:56.066Z,55.60
2018-02-19T04:34:56.037Z,55.80
2018-02-19T04:35:56.014Z,57.50
2018-02-19T04:36:55.986Z,55.70
2018-02-19T04:37:55.960Z,61.50
2018-02-19T04:38:55.935Z,56.20
2018-02-19T04:39:55.912Z,59.60
2018-02-19T04:40:55.886Z,58.80
2018-02-19T04:41:55.865Z,55.60
2018-02-19T04:42:55.833Z,57.90
2018-02-19T04:43:55.810Z,55.70
2018-02-19T04:44:55.915Z,50.60
2018-02-19T04:45:55.765Z,57.30
2018-02-19T04:46:55.732Z,53.90
2018-02-19T04:47:55.830Z,58.00
2018-02-19T04:48:55.684Z,58.10
2018-02-19T04:49:55.657Z,54.10
2018-02-19T04:50:55.675Z,57.60
2018-02-19T04:51:55.608Z,55.70
2018-02-19T04:52:55.581Z,59.10
2018-02-19T04:53:55.558Z,56.80
2018-02-19T04:54:55.528Z,56.50
2018-02-19T04:55:55.503Z,58.00
2018-02-19T04:56:55.498Z,57.10
2018-02-19T04:57:55.453Z,57.50
2018-02-19T04:58:55.428Z,59.30
2018-02-19T04:59:55.403Z,57.10
2018-02-19T05:00:55.379Z,58.20
2018-02-19T05:01:55.353Z,57.00
2018-02-19T05:02:55.326Z,53.60
2018-02-19T05:03:55.307Z,58.10
2018-02-19T05:04:55.277Z,57.10
2018-02-19T05:05:55.258Z,55.30
2018-02-19T05:06:55.225Z,61.00
2018-02-19T05:07:55.208Z,57.00
2018-02-19T05:08:55.175Z,58.00
2018-02-19T05:09:55.156Z,60.00
2018-02-19T05:10:55.126Z,50.10
2018-02-19T05:11:55.101Z,54.70
2018-02-19T05:12:55.169Z,59.60
2018-02-19T05:13:55.047Z,55.80
2018-02-19T05:14:55.025Z,53.80
2018-02-19T05:15:55.055Z,61.20
2018-02-19T05:16:54.973Z,53.80
2018-02-19T05:17:54.948Z,58.50
2018-02-19T05:18:54.926Z,58.70
2018-02-19T05:19:54.897Z,60.70
2018-02-19T05:20:54.877Z,52.90
2018-02-19T05:21:54.848Z,56.20
2018-02-19T05:22:54.882Z,61.90
2018-02-19T05:23:54.799Z,55.10
2018-02-19T05:24:54.783Z,58.40
2018-02-19T05:25:54.748Z,53.50
2018-02-19T05:26:54.724Z,53.80
2018-02-19T05:27:54.701Z,58.20
2018-02-19T05:28:54.679Z,58.60
2018-02-19T05:29:54.646Z,58.20
2018-02-19T05:30:54.621Z,56.70
2018-02-19T05:31:54.605Z,59.50
2018-02-19T05:32:54.573Z,56.70
2018-02-19T05:33:54.552Z,57.50
2018-02-19T05:34:54.525Z,57.10
2018-02-19T05:35:54.496Z,57.90
2018-02-19T05:36:54.483Z,63.40
2018-02-19T05:37:54.444Z,59.10
2018-02-19T05:38:54.417Z,57.90
2018-02-19T05:39:54.401Z,56.50
2018-02-19T05:40:54.374Z,63.10
2018-02-19T05:41:54.341Z,61.10
2018-02-19T05:42:54.317Z,55.90
2018-02-19T05:43:54.301Z,57.60
2018-02-19T05:44:54.267Z,60.70
2018-02-19T05:45:54.379Z,56.20
2018-02-19T05:46:54.216Z,58.90
2018-02-19T05:47:54.191Z,59.80
2018-02-19T05:48:54.245Z,60.40
2018-02-19T05:49:54.145Z,55.70
2018-02-19T05:50:54.115Z,55.70
2018-02-19T05:51:54.140Z,56.90
2018-02-19T05:52:54.067Z,54.70
2018-02-19T05:53:54.042Z,55.50
2018-02-19T05:54:54.018Z,59.50
2018-02-19T05:55:53.989Z,64.10
2018-02-19T05:56:53.962Z,63.30
2018-02-19T05:57:53.938Z,58.60
2018-02-19T05:58:53.915Z,58.20
2018-02-19T05:59:53.918Z,62.70
2018-02-19T06:00:53.870Z,58.30
2018-02-19T06:01:53.853Z,56.50
2018-02-19T06:02:53.812Z,62.50
2018-02-19T06:03:53.787Z,68.70
2018-02-19T06:04:53.760Z,61.70
2018-02-19T06:05:53.736Z,58.60
2018-02-19T06:06:53.714Z,58.80
2018-02-19T06:07:53.692Z,62.10
2018-02-19T06:08:53.682Z,57.80
2018-02-19T06:09:53.633Z,57.10
2018-02-19T06:10:53.610Z,63.40
2018-02-19T06:11:53.590Z,60.40
2018-02-19T06:12:53.558Z,62.60
2018-02-19T06:13:53.539Z,61.30
2018-02-19T06:14:53.508Z,61.20
2018-02-19T06:15:53.487Z,60.90
2018-02-19T06:16:53.457Z,64.80
2018-02-19T06:17:53.433Z,58.00
2018-02-19T06:18:53.422Z,59.50
2018-02-19T06:19:53.382Z,57.70
2018-02-19T06:20:53.356Z,57.80
2018-02-19T06:21:53.333Z,59.10
2018-02-19T06:22:53.307Z,60.30
2018-02-19T06:23:53.278Z,58.90
2018-02-19T06:24:53.254Z,59.10
2018-02-19T06:25:53.230Z,60.80
2018-02-19T06:26:53.203Z,58.70
2018-02-19T06:27:53.177Z,61.20
2018-02-19T06:28:53.156Z,59.10
2018-02-19T06:29:53.124Z,61.00
2018-02-19T06:30:53.147Z,61.30
2018-02-19T06:31:53.077Z,57.00
2018-02-19T06:32:53.056Z,67.40
2018-02-19T06:33:53.134Z,62.80
2018-02-19T06:34:53.000Z,57.70
2018-02-19T06:35:53.029Z,62.20
2018-02-19T06:36:52.956Z,62.20
2018-02-19T06:37:52.935Z,57.00
2018-02-19T06:38:52.900Z,57.30
2018-02-19T06:39:52.874Z,62.20
2018-02-19T06:40:52.863Z,57.70
2018-02-19T06:41:52.823Z,63.00
2018-02-19T06:42:52.800Z,59.20
2018-02-19T06:43:52.773Z,64.00
2018-02-19T06:44:52.748Z,59.90
2018-02-19T06:45:52.724Z,57.20
2018-02-19T06:46:52.707Z,57.40
2018-02-19T06:47:52.676Z,57.60
2018-02-19T06:48:52.645Z,60.30
2018-02-19T06:49:52.631Z,59.70
2018-02-19T06:50:52.595Z,61.10
2018-02-19T06:51:52.590Z,58.80
2018-02-19T06:52:52.545Z,60.90
2018-02-19T06:53:52.518Z,60.90
2018-02-19T06:54:52.492Z,59.30
2018-02-19T06:55:52.467Z,64.90
2018-02-19T06:56:52.443Z,58.90
2018-02-19T06:57:52.414Z,62.80
2018-02-19T06:58:52.392Z,67.20
2018-02-19T06:59:52.369Z,64.20
2018-02-19T07:00:52.343Z,67.70
2018-02-19T07:01:52.316Z,62.40
2018-02-19T07:02:52.290Z,61.80
2018-02-19T07:03:52.264Z,60.90
2018-02-19T07:04:52.241Z,62.70
2018-02-19T07:05:52.331Z,59.50
2018-02-19T07:06:52.196Z,63.00
2018-02-19T07:07:52.164Z,65.30
2018-02-19T07:08:52.171Z,64.40
2018-02-19T07:09:52.115Z,61.60
2018-02-19T07:10:52.113Z,66.40
2018-02-19T07:11:52.073Z,62.40
2018-02-19T07:12:52.038Z,63.20
2018-02-19T07:13:52.010Z,60.70
2018-02-19T07:14:51.985Z,66.30
2018-02-19T07:15:51.954Z,66.80
2018-02-19T07:16:51.945Z,62.10
2018-02-19T07:17:51.904Z,56.80
2018-02-19T07:18:51.879Z,62.10
2018-02-19T07:19:51.959Z,63.20
2018-02-19T07:20:51.828Z,59.60
2018-02-19T07:21:51.804Z,60.80
2018-02-19T07:22:51.786Z,63.10
2018-02-19T07:23:51.751Z,57.60
2018-02-19T07:24:51.728Z,66.80
2018-02-19T07:25:51.698Z,61.40
2018-02-19T07:26:51.673Z,62.30
2018-02-19T07:27:51.658Z,59.80
2018-02-19T07:28:51.630Z,63.20
2018-02-19T07:29:51.607Z,62.40
2018-02-19T07:30:51.570Z,61.20
2018-02-19T07:31:51.555Z,62.70
2018-02-19T07:32:51.517Z,63.30
2018-02-19T07:33:51.493Z,65.60
2018-02-19T07:34:51.475Z,67.10
2018-02-19T07:35:51.447Z,59.60
2018-02-19T07:36:51.416Z,60.80
2018-02-19T07:37:51.389Z,60.50
2018-02-19T07:38:51.371Z,63.30
2018-02-19T07:39:51.339Z,61.60
2018-02-19T07:40:51.326Z,64.50
2018-02-19T07:41:51.288Z,60.00
2018-02-19T07:42:51.266Z,64.00
2018-02-19T07:43:51.238Z,66.20
2018-02-19T07:44:51.213Z,63.60
2018-02-19T07:45:51.186Z,63.50
2018-02-19T07:46:51.160Z,59.70
2018-02-19T07:47:51.139Z,68.60
2018-02-19T07:48:51.111Z,69.70
2018-02-19T07:49:51.085Z,65.70
2018-02-19T07:50:51.223Z,65.90
2018-02-19T07:51:51.047Z,65.70
2018-02-19T07:52:51.015Z,68.10
2018-02-19T07:53:51.004Z,65.90
2018-02-19T07:54:50.960Z,65.50
2018-02-19T07:55:50.935Z,61.40
2018-02-19T07:56:50.910Z,68.40
2018-02-19T07:57:50.885Z,64.40
2018-02-19T07:58:50.859Z,59.90
2018-02-19T07:59:50.837Z,65.60
2018-02-19T08:00:50.810Z,61.20
2018-02-19T08:01:50.792Z,61.70
2018-02-19T08:02:50.758Z,66.50
2018-02-19T08:03:50.736Z,64.80
2018-02-19T08:04:50.738Z,66.10
2018-02-19T08:05:50.686Z,62.00
2018-02-19T08:06:50.667Z,62.40
2018-02-19T08:07:50.693Z,64.50
2018-02-19T08:08:50.620Z,62.10
2018-02-19T08:09:50.593Z,63.80
2018-02-19T08:10:50.562Z,62.40
2018-02-19T08:11:50.546Z,63.80
2018-02-19T08:12:50.511Z,63.80
2018-02-19T08:13:50.487Z,59.80
2018-02-19T08:14:50.462Z,57.90
2018-02-19T08:15:50.441Z,62.60
2018-02-19T08:16:50.422Z,60.50
2018-02-19T08:17:50.391Z,58.50
2018-02-19T08:18:50.372Z,60.40
2018-02-19T08:19:50.341Z,64.80
2018-02-19T08:20:50.317Z,56.80
2018-02-19T08:21:50.290Z,57.90
2018-02-19T08:22:50.266Z,64.30
2018-02-19T08:23:50.241Z,53.20
2018-02-19T08:24:50.221Z,58.70
2018-02-19T08:25:50.194Z,59.00
2018-02-19T08:26:50.185Z,56.80
2018-02-19T08:27:50.146Z,60.70
2018-02-19T08:28:50.123Z,62.50
2018-02-19T08:29:50.111Z,59.70
2018-02-19T08:30:50.079Z,62.70
2018-02-19T08:31:50.049Z,57.70
2018-02-19T08:32:50.025Z,59.80
2018-02-19T08:33:49.999Z,57.60
2018-02-19T08:34:49.974Z,62.00
2018-02-19T08:35:49.958Z,55.80
2018-02-19T08:36:49.933Z,57.60
2018-02-19T08:37:49.933Z,57.20
2018-02-19T08:38:49.881Z,61.00
2018-02-19T08:39:49.861Z,52.70
2018-02-19T08:40:49.830Z,54.70
2018-02-19T08:41:49.811Z,53.40
2018-02-19T08:42:49.778Z,54.10
2018-02-19T08:43:49.757Z,65.20
2018-02-19T08:44:49.729Z,58.10
2018-02-19T08:45:49.703Z,56.40
2018-02-19T08:46:49.697Z,56.60
2018-02-19T08:47:49.660Z,55.30
2018-02-19T08:48:49.631Z,54.90
2018-02-19T08:49:49.610Z,55.00
2018-02-19T08:50:49.583Z,53.40
2018-02-19T08:51:49.558Z,57.80
2018-02-19T08:52:49.537Z,51.20
2018-02-19T08:53:49.510Z,51.20
2018-02-19T08:54:49.488Z,52.30
2018-02-19T08:55:49.462Z,53.80
2018-02-19T08:56:49.437Z,53.60
2018-02-19T08:57:49.411Z,52.10
2018-02-19T08:58:49.388Z,50.10
2018-02-19T08:59:49.383Z,51.60
2018-02-19T09:00:49.339Z,47.80
2018-02-19T09:01:49.317Z,52.10
2018-02-19T09:02:49.300Z,52.70
2018-02-19T09:03:49.268Z,54.10
2018-02-19T09:04:49.245Z,57.00
2018-02-19T09:05:49.220Z,48.10
2018-02-19T09:06:49.197Z,51.90
2018-02-19T09:07:49.171Z,52.20
2018-02-19T09:08:49.149Z,46.30
2018-02-19T09:09:49.125Z,52.10
2018-02-19T09:10:49.106Z,51.70
2018-02-19T09:11:49.075Z,52.20
2018-02-19T09:12:49.054Z,50.50
2018-02-19T09:13:49.028Z,50.70
2018-02-19T09:14:49.005Z,50.90
2018-02-19T09:15:48.988Z,59.70
2018-02-19T09:16:48.957Z,49.20
2018-02-19T09:17:48.943Z,47.70
2018-02-19T09:18:48.999Z,47.80
2018-02-19T09:19:48.887Z,50.40
2018-02-19T09:20:48.864Z,52.20
2018-02-19T09:21:48.932Z,52.70
2018-02-19T09:22:48.821Z,51.30
2018-02-19T09:23:48.793Z,54.80
2018-02-19T09:24:48.764Z,48.90
2018-02-19T09:25:48.744Z,53.60
2018-02-19T09:26:48.725Z,53.00
2018-02-19T09:27:48.704Z,49.40
2018-02-19T09:28:48.672Z,52.50
2018-02-19T09:29:48.651Z,44.60
2018-02-19T09:30:48.628Z,47.20
2018-02-19T09:31:48.605Z,51.70
2018-02-19T09:32:48.578Z,51.90
2018-02-19T09:33:48.554Z,52.50
2018-02-19T09:34:48.599Z,52.70
2018-02-19T09:35:48.520Z,49.40
2018-02-19T09:36:48.492Z,51.00
2018-02-19T09:37:48.480Z,50.20
2018-02-19T09:38:48.440Z,48.00
2018-02-19T09:39:48.421Z,50.20
2018-02-19T09:40:48.397Z,52.70
2018-02-19T09:41:48.376Z,47.10
2018-02-19T09:42:48.354Z,48.50
2018-02-19T09:43:48.332Z,52.90
2018-02-19T09:44:48.312Z,50.80
2018-02-19T09:45:48.294Z,44.70
2018-02-19T09:46:48.271Z,46.50
2018-02-19T09:47:48.305Z,50.10
2018-02-19T09:48:48.225Z,54.50
2018-02-19T09:49:48.203Z,50.20
2018-02-19T09:50:48.181Z,47.40
2018-02-19T09:51:48.165Z,49.00
2018-02-19T09:52:48.147Z,47.60
2018-02-19T09:53:48.128Z,44.20
2018-02-19T09:54:48.094Z,45.20
2018-02-19T09:55:48.082Z,47.50
2018-02-19T09:56:48.055Z,52.90
2018-02-19T09:57:48.033Z,49.70
2018-02-19T09:58:48.018Z,49.40
2018-02-19T09:59:48.009Z,48.00
2018-02-19T10:00:47.969Z,46.80
2018-02-19T10:01:48.076Z,48.80
2018-02-19T10:02:47.927Z,46.40
2018-02-19T10:03:47.908Z,47.20
2018-02-19T10:04:47.889Z,47.60
2018-02-19T10:05:47.868Z,54.80
2018-02-19T10:06:47.843Z,50.70
2018-02-19T10:07:47.829Z,48.60
2018-02-19T10:08:47.804Z,50.00
2018-02-19T10:09:47.786Z,51.70
2018-02-19T10:10:47.762Z,51.60
2018-02-19T10:11:47.754Z,52.20
2018-02-19T10:12:47.729Z,51.40
2018-02-19T10:13:47.703Z,47.60
2018-02-19T10:14:47.697Z,47.00
2018-02-19T10:15:47.670Z,47.20
2018-02-19T10:16:47.645Z,46.00
2018-02-19T10:17:47.626Z,47.50
2018-02-19T10:18:47.612Z,51.30
2018-02-19T10:19:47.586Z,47.10
2018-02-19T10:20:47.730Z,52.20
2018-02-19T10:21:47.546Z,42.60
2018-02-19T10:22:47.527Z,44.50
2018-02-19T10:23:47.521Z,50.40
2018-02-19T10:24:47.491Z,45.90
2018-02-19T10:25:47.469Z,42.00
2018-02-19T10:26:47.452Z,50.50
2018-02-19T10:27:47.429Z,50.30
2018-02-19T10:28:47.408Z,48.60
2018-02-19T10:29:47.390Z,47.60
2018-02-19T10:30:47.367Z,45.30
2018-02-19T10:31:47.352Z,46.30
2018-02-19T10:32:47.331Z,44.10
2018-02-19T10:33:47.310Z,49.60
2018-02-19T10:34:47.291Z,55.10
2018-02-19T10:35:47.270Z,49.30
2018-02-19T10:36:47.259Z,47.10
2018-02-19T10:37:47.233Z,45.40
2018-02-19T10:38:47.210Z,43.90
2018-02-19T10:39:47.194Z,45.00
2018-02-19T10:40:47.175Z,45.30
2018-02-19T10:41:47.155Z,48.10
2018-02-19T10:42:47.162Z,44.90
2018-02-19T10:43:47.120Z,47.80
2018-02-19T10:44:47.144Z,47.30
2018-02-19T10:45:47.079Z,43.70
2018-02-19T10:46:47.057Z,41.60
2018-02-19T10:47:47.037Z,45.50
2018-02-19T10:48:47.028Z,46.70
2018-02-19T10:49:46.999Z,39.50
2018-02-19T10:50:46.982Z,44.10
2018-02-19T10:51:46.962Z,45.20
2018-02-19T10:52:46.961Z,46.30
2018-02-19T10:53:46.923Z,40.50
2018-02-19T10:54:46.907Z,43.50
2018-02-19T10:55:46.884Z,47.60
2018-02-19T10:56:46.861Z,44.40
2018-02-19T10:57:46.865Z,42.30
2018-02-19T10:58:46.821Z,41.90
2018-02-19T10:59:46.800Z,45.30
2018-02-19T11:00:46.785Z,42.30
2018-02-19T11:01:46.766Z,46.10
2018-02-19T11:02:46.742Z,48.90
2018-02-19T11:03:46.721Z,49.50
2018-02-19T11:04:46.705Z,55.10
2018-02-19T11:05:46.682Z,52.70
2018-02-19T11:06:46.818Z,47.70
2018-02-19T11:07:46.643Z,46.80
2018-02-19T11:08:46.631Z,42.50
2018-02-19T11:09:46.763Z,42.80
2018-02-19T11:10:46.584Z,43.60
2018-02-19T11:11:46.569Z,45.10
2018-02-19T11:12:46.558Z,44.20
2018-02-19T11:13:46.532Z,48.20
2018-02-19T11:14:46.505Z,42.40
2018-02-19T11:15:46.489Z,47.60
2018-02-19T11:16:46.469Z,41.80
2018-02-19T11:17:46.455Z,45.60
2018-02-19T11:18:46.434Z,45.60
2018-02-19T11:19:46.408Z,43.60
2018-02-19T11:20:46.388Z,49.70
2018-02-19T11:21:46.368Z,53.30
2018-02-19T11:22:46.352Z,43.80
2018-02-19T11:23:46.331Z,54.20
2018-02-19T11:24:46.313Z,51.10
2018-02-19T11:25:46.293Z,45.10
2018-02-19T11:26:46.271Z,49.40
2018-02-19T11:27:46.253Z,50.20
2018-02-19T11:28:46.237Z,48.90
2018-02-19T11:29:46.228Z,44.30
2018-02-19T11:30:46.197Z,47.40
2018-02-19T11:31:46.186Z,48.40
2018-02-19T11:32:46.159Z,47.50
2018-02-19T11:33:46.137Z,49.40
2018-02-19T11:34:46.123Z,48.00
2018-02-19T11:35:46.191Z,51.90
2018-02-19T11:36:46.080Z,52.70
2018-02-19T11:37:46.060Z,49.00
2018-02-19T11:38:55.315Z,50.50
2018-02-19T11:39:46.021Z,47.40
2018-02-19T11:40:46.000Z,53.40
2018-02-19T11:41:45.981Z,47.60
2018-02-19T11:42:45.962Z,48.80
2018-02-19T11:43:45.940Z,55.50
2018-02-19T11:44:45.922Z,53.00
2018-02-19T11:45:45.900Z,52.00
2018-02-19T11:46:45.922Z,50.20
2018-02-19T11:47:45.878Z,45.30
2018-02-19T11:48:45.849Z,47.60
2018-02-19T11:49:45.828Z,56.90
2018-02-19T11:50:45.809Z,50.40
2018-02-19T11:51:45.784Z,46.70
2018-02-19T11:52:45.769Z,50.80
2018-02-19T11:53:45.747Z,56.70
2018-02-19T11:54:45.806Z,58.10
2018-02-19T11:55:45.705Z,52.80
2018-02-19T11:56:45.689Z,51.50
2018-02-19T11:57:45.674Z,52.70
2018-02-19T11:58:45.644Z,52.10
2018-02-19T11:59:45.634Z,50.60
2018-02-19T12:00:45.602Z,54.40
2018-02-19T12:01:45.590Z,51.30
2018-02-19T12:02:45.567Z,48.40
2018-02-19T12:03:45.543Z,58.10
2018-02-19T12:04:45.523Z,57.00
2018-02-19T12:05:45.515Z,52.90
2018-02-19T12:06:45.481Z,53.50
2018-02-19T12:07:45.462Z,52.70
2018-02-19T12:08:45.481Z,44.60
2018-02-19T12:09:45.422Z,48.20
2018-02-19T12:10:45.403Z,46.70
2018-02-19T12:11:45.381Z,49.80
2018-02-19T12:12:45.362Z,49.90
2018-02-19T12:13:45.341Z,51.70
2018-02-19T12:14:45.343Z,50.80
2018-02-19T12:15:45.317Z,47.80
2018-02-19T12:16:45.282Z,49.70
2018-02-19T12:17:45.263Z,50.70
2018-02-19T12:18:45.337Z,48.20
2018-02-19T12:19:45.228Z,46.70
2018-02-19T12:20:45.204Z,50.10
2018-02-19T12:21:45.285Z,50.10
2018-02-19T12:22:45.166Z,50.60
2018-02-19T12:23:45.149Z,44.40
2018-02-19T12:24:45.136Z,56.80
2018-02-19T12:25:45.107Z,56.30
2018-02-19T12:26:45.088Z,52.30
2018-02-19T12:27:45.075Z,48.80
2018-02-19T12:28:45.051Z,51.00
2018-02-19T12:29:45.024Z,47.10
2018-02-19T12:30:45.012Z,47.00
2018-02-19T12:31:44.992Z,46.10
2018-02-19T12:32:44.981Z,45.20
2018-02-19T12:33:44.949Z,50.10
2018-02-19T12:34:44.930Z,45.70
2018-02-19T12:35:44.920Z,50.70
2018-02-19T12:36:44.886Z,51.00
2018-02-19T12:37:44.866Z,48.40
2018-02-19T12:38:44.848Z,52.20
2018-02-19T12:39:44.830Z,48.80
2018-02-19T12:40:44.829Z,48.00
2018-02-19T12:41:44.789Z,51.30
2018-02-19T12:42:44.765Z,49.80
2018-02-19T12:43:44.854Z,47.50
2018-02-19T12:44:44.721Z,48.90
2018-02-19T12:45:44.705Z,46.80
2018-02-19T12:46:44.691Z,43.10
2018-02-19T12:47:44.662Z,42.20
2018-02-19T12:48:44.642Z,48.60
2018-02-19T12:49:44.622Z,47.70
2018-02-19T12:50:44.606Z,50.00
2018-02-19T12:51:44.581Z,45.40